sensor_id;sensor_type;location;lat;lon;timestamp;temperature;humidity
9057;DHT22;4563;54.756;9.400;2023-11-21T00:01:55;10.60;83.70
9057;DHT22;4563;54.756;9.400;2023-11-21T00:04:22;10.60;83.70
9057;DHT22;4563;54.756;9.400;2023-11-21T00:06:50;10.60;83.70
9057;DHT22;4563;54.756;9.400;2023-11-21T00:09:17;10.60;83.70
9057;DHT22;4563;54.756;9.400;2023-11-21T00:11:44;10.60;83.70
9057;DHT22;4563;54.756;9.400;2023-11-21T00:14:11;10.60;83.70
9057;DHT22;4563;54.756;9.400;2023-11-21T00:16:38;10.60;83.70
9057;DHT22;4563;54.756;9.400;2023-11-21T00:19:06;10.60;83.60
9057;DHT22;4563;54.756;9.400;2023-11-21T00:21:33;10.60;83.60
9057;DHT22;4563;54.756;9.400;2023-11-21T00:24:00;10.60;83.70
9057;DHT22;4563;54.756;9.400;2023-11-21T00:26:26;10.60;83.60
9057;DHT22;4563;54.756;9.400;2023-11-21T00:28:53;10.60;83.60
9057;DHT22;4563;54.756;9.400;2023-11-21T00:31:20;10.50;83.40
9057;DHT22;4563;54.756;9.400;2023-11-21T00:33:47;10.60;83.60
9057;DHT22;4563;54.756;9.400;2023-11-21T00:36:15;10.60;83.60
9057;DHT22;4563;54.756;9.400;2023-11-21T00:38:42;10.60;83.60
9057;DHT22;4563;54.756;9.400;2023-11-21T00:41:09;10.60;83.60
9057;DHT22;4563;54.756;9.400;2023-11-21T00:43:36;10.60;83.60
9057;DHT22;4563;54.756;9.400;2023-11-21T00:46:04;10.60;83.60
9057;DHT22;4563;54.756;9.400;2023-11-21T00:48:31;10.60;83.60
9057;DHT22;4563;54.756;9.400;2023-11-21T00:50:57;10.60;83.50
9057;DHT22;4563;54.756;9.400;2023-11-21T00:53:25;10.60;84.20
9057;DHT22;4563;54.756;9.400;2023-11-21T00:55:52;10.60;83.50
9057;DHT22;4563;54.756;9.400;2023-11-21T00:58:22;10.60;83.50
9057;DHT22;4563;54.756;9.400;2023-11-21T01:00:49;10.50;83.40
9057;DHT22;4563;54.756;9.400;2023-11-21T01:03:16;10.50;83.40
9057;DHT22;4563;54.756;9.400;2023-11-21T01:05:42;10.50;83.40
9057;DHT22;4563;54.756;9.400;2023-11-21T01:08:09;10.50;83.40
9057;DHT22;4563;54.756;9.400;2023-11-21T01:10:37;10.60;83.50
9057;DHT22;4563;54.756;9.400;2023-11-21T01:13:05;10.50;83.40
9057;DHT22;4563;54.756;9.400;2023-11-21T01:15:32;10.50;83.40
9057;DHT22;4563;54.756;9.400;2023-11-21T01:17:59;10.50;83.40
9057;DHT22;4563;54.756;9.400;2023-11-21T01:20:26;10.50;83.40
9057;DHT22;4563;54.756;9.400;2023-11-21T01:22:53;10.50;83.30
9057;DHT22;4563;54.756;9.400;2023-11-21T01:25:21;10.50;83.40
9057;DHT22;4563;54.756;9.400;2023-11-21T01:27:49;10.50;83.30
9057;DHT22;4563;54.756;9.400;2023-11-21T01:30:15;10.50;83.40
9057;DHT22;4563;54.756;9.400;2023-11-21T01:32:42;10.40;83.30
9057;DHT22;4563;54.756;9.400;2023-11-21T01:35:09;10.40;83.30
9057;DHT22;4563;54.756;9.400;2023-11-21T01:37:36;10.50;83.30
9057;DHT22;4563;54.756;9.400;2023-11-21T01:40:03;10.50;83.40
9057;DHT22;4563;54.756;9.400;2023-11-21T01:42:34;10.40;83.20
9057;DHT22;4563;54.756;9.400;2023-11-21T01:45:03;10.50;83.30
9057;DHT22;4563;54.756;9.400;2023-11-21T01:47:31;10.50;83.40
9057;DHT22;4563;54.756;9.400;2023-11-21T01:49:58;10.40;83.20
9057;DHT22;4563;54.756;9.400;2023-11-21T01:52:25;10.50;83.40
9057;DHT22;4563;54.756;9.400;2023-11-21T01:54:52;10.40;83.20
9057;DHT22;4563;54.756;9.400;2023-11-21T01:57:20;10.40;83.20
9057;DHT22;4563;54.756;9.400;2023-11-21T01:59:47;10.40;83.20
9057;DHT22;4563;54.756;9.400;2023-11-21T02:02:16;10.50;83.30
9057;DHT22;4563;54.756;9.400;2023-11-21T02:04:43;10.40;83.20
9057;DHT22;4563;54.756;9.400;2023-11-21T02:07:10;10.40;83.20
9057;DHT22;4563;54.756;9.400;2023-11-21T02:09:37;10.40;83.20
9057;DHT22;4563;54.756;9.400;2023-11-21T02:12:08;10.40;83.30
9057;DHT22;4563;54.756;9.400;2023-11-21T02:14:36;10.40;83.20
9057;DHT22;4563;54.756;9.400;2023-11-21T02:17:03;10.40;83.20
9057;DHT22;4563;54.756;9.400;2023-11-21T02:19:31;10.40;83.20
9057;DHT22;4563;54.756;9.400;2023-11-21T02:22:00;10.40;83.20
9057;DHT22;4563;54.756;9.400;2023-11-21T02:24:31;10.40;83.20
9057;DHT22;4563;54.756;9.400;2023-11-21T02:26:58;10.40;83.20
9057;DHT22;4563;54.756;9.400;2023-11-21T02:29:25;10.40;83.20
9057;DHT22;4563;54.756;9.400;2023-11-21T02:31:54;10.40;83.30
9057;DHT22;4563;54.756;9.400;2023-11-21T02:34:22;10.40;83.20
9057;DHT22;4563;54.756;9.400;2023-11-21T02:36:50;10.30;83.10
9057;DHT22;4563;54.756;9.400;2023-11-21T02:39:17;10.40;83.20
9057;DHT22;4563;54.756;9.400;2023-11-21T02:41:48;10.40;83.20
9057;DHT22;4563;54.756;9.400;2023-11-21T02:44:17;10.30;83.80
9057;DHT22;4563;54.756;9.400;2023-11-21T02:46:44;10.40;83.20
9057;DHT22;4563;54.756;9.400;2023-11-21T02:49:12;10.30;83.10
9057;DHT22;4563;54.756;9.400;2023-11-21T02:51:39;10.30;83.10
9057;DHT22;4563;54.756;9.400;2023-11-21T02:54:06;10.30;83.10
9057;DHT22;4563;54.756;9.400;2023-11-21T02:56:33;10.30;83.10
9057;DHT22;4563;54.756;9.400;2023-11-21T02:59:02;10.30;83.10
9057;DHT22;4563;54.756;9.400;2023-11-21T03:01:28;10.30;83.10
9057;DHT22;4563;54.756;9.400;2023-11-21T03:03:55;10.30;83.10
9057;DHT22;4563;54.756;9.400;2023-11-21T03:06:22;10.30;83.10
9057;DHT22;4563;54.756;9.400;2023-11-21T03:08:49;10.30;83.00
9057;DHT22;4563;54.756;9.400;2023-11-21T03:11:16;10.30;83.10
9057;DHT22;4563;54.756;9.400;2023-11-21T03:13:43;10.30;83.10
9057;DHT22;4563;54.756;9.400;2023-11-21T03:16:12;10.30;83.00
9057;DHT22;4563;54.756;9.400;2023-11-21T03:18:39;10.30;83.00
9057;DHT22;4563;54.756;9.400;2023-11-21T03:21:06;10.30;83.10
9057;DHT22;4563;54.756;9.400;2023-11-21T03:23:34;10.30;83.00
9057;DHT22;4563;54.756;9.400;2023-11-21T03:26:01;10.30;83.00
9057;DHT22;4563;54.756;9.400;2023-11-21T03:28:27;10.20;82.90
9057;DHT22;4563;54.756;9.400;2023-11-21T03:30:55;10.20;82.90
9057;DHT22;4563;54.756;9.400;2023-11-21T03:33:24;10.20;82.90
9057;DHT22;4563;54.756;9.400;2023-11-21T03:35:51;10.30;83.00
9057;DHT22;4563;54.756;9.400;2023-11-21T03:38:18;10.20;82.90
9057;DHT22;4563;54.756;9.400;2023-11-21T03:40:45;10.20;83.00
9057;DHT22;4563;54.756;9.400;2023-11-21T03:43:13;10.20;82.90
9057;DHT22;4563;54.756;9.400;2023-11-21T03:45:39;10.20;82.90
9057;DHT22;4563;54.756;9.400;2023-11-21T03:48:07;10.20;83.00
9057;DHT22;4563;54.756;9.400;2023-11-21T03:50:37;10.20;82.90
9057;DHT22;4563;54.756;9.400;2023-11-21T03:53:04;10.20;82.90
9057;DHT22;4563;54.756;9.400;2023-11-21T03:55:31;10.20;82.90
9057;DHT22;4563;54.756;9.400;2023-11-21T03:57:58;10.20;82.90
9057;DHT22;4563;54.756;9.400;2023-11-21T04:00:25;10.20;82.90
9057;DHT22;4563;54.756;9.400;2023-11-21T04:02:52;10.20;82.90
9057;DHT22;4563;54.756;9.400;2023-11-21T04:05:20;10.10;82.80
9057;DHT22;4563;54.756;9.400;2023-11-21T04:07:48;10.20;82.90
9057;DHT22;4563;54.756;9.400;2023-11-21T04:10:15;10.20;83.00
9057;DHT22;4563;54.756;9.400;2023-11-21T04:12:42;10.10;82.80
9057;DHT22;4563;54.756;9.400;2023-11-21T04:15:10;10.10;82.80
9057;DHT22;4563;54.756;9.400;2023-11-21T04:17:38;10.10;82.80
9057;DHT22;4563;54.756;9.400;2023-11-21T04:20:06;10.10;82.80
9057;DHT22;4563;54.756;9.400;2023-11-21T04:22:36;10.10;82.80
9057;DHT22;4563;54.756;9.400;2023-11-21T04:25:06;10.10;82.80
9057;DHT22;4563;54.756;9.400;2023-11-21T04:27:32;10.10;82.80
9057;DHT22;4563;54.756;9.400;2023-11-21T04:30:00;10.10;82.90
9057;DHT22;4563;54.756;9.400;2023-11-21T04:32:26;10.10;82.80
9057;DHT22;4563;54.756;9.400;2023-11-21T04:34:53;10.10;82.80
9057;DHT22;4563;54.756;9.400;2023-11-21T04:37:20;10.10;82.70
9057;DHT22;4563;54.756;9.400;2023-11-21T04:39:47;10.10;82.70
9057;DHT22;4563;54.756;9.400;2023-11-21T04:42:15;10.10;82.80
9057;DHT22;4563;54.756;9.400;2023-11-21T04:44:41;10.10;82.70
9057;DHT22;4563;54.756;9.400;2023-11-21T04:47:09;10.10;82.80
9057;DHT22;4563;54.756;9.400;2023-11-21T04:49:36;10.00;82.70
9057;DHT22;4563;54.756;9.400;2023-11-21T04:52:03;10.10;82.80
9057;DHT22;4563;54.756;9.400;2023-11-21T04:54:30;10.00;82.70
9057;DHT22;4563;54.756;9.400;2023-11-21T04:56:57;10.00;82.70
9057;DHT22;4563;54.756;9.400;2023-11-21T04:59:25;10.10;82.70
9057;DHT22;4563;54.756;9.400;2023-11-21T05:01:52;10.10;82.70
9057;DHT22;4563;54.756;9.400;2023-11-21T05:04:19;10.10;82.70
9057;DHT22;4563;54.756;9.400;2023-11-21T05:06:47;10.10;83.40
9057;DHT22;4563;54.756;9.400;2023-11-21T05:09:15;10.10;82.70
9057;DHT22;4563;54.756;9.400;2023-11-21T05:11:42;10.00;82.70
9057;DHT22;4563;54.756;9.400;2023-11-21T05:14:08;10.00;82.60
9057;DHT22;4563;54.756;9.400;2023-11-21T05:16:37;10.00;82.60
9057;DHT22;4563;54.756;9.400;2023-11-21T05:19:04;10.00;82.60
9057;DHT22;4563;54.756;9.400;2023-11-21T05:21:32;10.00;82.60
9057;DHT22;4563;54.756;9.400;2023-11-21T05:23:58;10.00;82.60
9057;DHT22;4563;54.756;9.400;2023-11-21T05:26:25;10.00;82.60
9057;DHT22;4563;54.756;9.400;2023-11-21T05:28:53;10.00;82.60
9057;DHT22;4563;54.756;9.400;2023-11-21T05:31:20;10.00;82.50
9057;DHT22;4563;54.756;9.400;2023-11-21T05:33:48;10.00;82.50
9057;DHT22;4563;54.756;9.400;2023-11-21T05:36:14;10.00;82.60
9057;DHT22;4563;54.756;9.400;2023-11-21T05:38:41;10.00;82.50
9057;DHT22;4563;54.756;9.400;2023-11-21T05:41:08;10.00;82.50
9057;DHT22;4563;54.756;9.400;2023-11-21T05:43:36;10.00;82.50
9057;DHT22;4563;54.756;9.400;2023-11-21T05:46:03;10.00;82.50
9057;DHT22;4563;54.756;9.400;2023-11-21T05:48:31;10.00;82.50
9057;DHT22;4563;54.756;9.400;2023-11-21T05:50:59;10.00;82.50
9057;DHT22;4563;54.756;9.400;2023-11-21T05:53:27;10.00;82.50
9057;DHT22;4563;54.756;9.400;2023-11-21T05:55:54;10.00;82.50
9057;DHT22;4563;54.756;9.400;2023-11-21T05:58:21;10.00;82.50
9057;DHT22;4563;54.756;9.400;2023-11-21T06:00:48;10.00;82.50
9057;DHT22;4563;54.756;9.400;2023-11-21T06:03:15;9.90;83.50
9057;DHT22;4563;54.756;9.400;2023-11-21T06:05:42;10.00;82.50
9057;DHT22;4563;54.756;9.400;2023-11-21T06:08:10;10.00;82.50
9057;DHT22;4563;54.756;9.400;2023-11-21T06:10:37;9.90;83.60
9057;DHT22;4563;54.756;9.400;2023-11-21T06:13:04;9.90;83.50
9057;DHT22;4563;54.756;9.400;2023-11-21T06:15:32;9.90;83.50
9057;DHT22;4563;54.756;9.400;2023-11-21T06:18:00;9.90;83.60
9057;DHT22;4563;54.756;9.400;2023-11-21T06:20:26;9.90;83.60
9057;DHT22;4563;54.756;9.400;2023-11-21T06:22:53;9.90;83.60
9057;DHT22;4563;54.756;9.400;2023-11-21T06:25:21;9.90;83.50
9057;DHT22;4563;54.756;9.400;2023-11-21T06:27:50;9.90;83.50
9057;DHT22;4563;54.756;9.400;2023-11-21T06:30:19;9.90;83.60
9057;DHT22;4563;54.756;9.400;2023-11-21T06:32:47;9.90;83.60
9057;DHT22;4563;54.756;9.400;2023-11-21T06:35:14;9.90;83.60
9057;DHT22;4563;54.756;9.400;2023-11-21T06:37:40;9.80;83.50
9057;DHT22;4563;54.756;9.400;2023-11-21T06:40:13;9.80;83.50
9057;DHT22;4563;54.756;9.400;2023-11-21T06:42:41;9.80;84.20
9057;DHT22;4563;54.756;9.400;2023-11-21T06:45:10;9.80;83.50
9057;DHT22;4563;54.756;9.400;2023-11-21T06:47:37;9.80;83.60
9057;DHT22;4563;54.756;9.400;2023-11-21T06:50:05;9.80;83.50
9057;DHT22;4563;54.756;9.400;2023-11-21T06:52:32;9.80;83.50
9057;DHT22;4563;54.756;9.400;2023-11-21T06:54:59;9.80;83.50
9057;DHT22;4563;54.756;9.400;2023-11-21T06:57:26;9.80;83.50
9057;DHT22;4563;54.756;9.400;2023-11-21T06:59:54;9.80;83.50
9057;DHT22;4563;54.756;9.400;2023-11-21T07:02:22;9.70;83.40
9057;DHT22;4563;54.756;9.400;2023-11-21T07:04:49;9.80;83.50
9057;DHT22;4563;54.756;9.400;2023-11-21T07:07:16;9.80;83.50
9057;DHT22;4563;54.756;9.400;2023-11-21T07:09:43;9.80;83.50
9057;DHT22;4563;54.756;9.400;2023-11-21T07:12:10;9.70;83.40
9057;DHT22;4563;54.756;9.400;2023-11-21T07:14:37;9.70;83.40
9057;DHT22;4563;54.756;9.400;2023-11-21T07:17:08;9.70;83.40
9057;DHT22;4563;54.756;9.400;2023-11-21T07:19:34;9.70;83.40
9057;DHT22;4563;54.756;9.400;2023-11-21T07:22:01;9.70;83.40
9057;DHT22;4563;54.756;9.400;2023-11-21T07:24:28;9.70;83.30
9057;DHT22;4563;54.756;9.400;2023-11-21T07:26:57;9.70;83.30
9057;DHT22;4563;54.756;9.400;2023-11-21T07:29:24;9.70;83.30
9057;DHT22;4563;54.756;9.400;2023-11-21T07:31:52;9.70;83.30
9057;DHT22;4563;54.756;9.400;2023-11-21T07:34:20;9.70;83.30
9057;DHT22;4563;54.756;9.400;2023-11-21T07:36:47;9.70;83.30
9057;DHT22;4563;54.756;9.400;2023-11-21T07:39:14;9.70;83.30
9057;DHT22;4563;54.756;9.400;2023-11-21T07:41:42;9.70;83.30
9057;DHT22;4563;54.756;9.400;2023-11-21T07:44:14;9.70;83.30
9057;DHT22;4563;54.756;9.400;2023-11-21T07:46:42;9.70;83.30
9057;DHT22;4563;54.756;9.400;2023-11-21T07:49:09;9.70;83.20
9057;DHT22;4563;54.756;9.400;2023-11-21T07:51:37;9.70;83.20
9057;DHT22;4563;54.756;9.400;2023-11-21T07:54:04;9.70;83.20
9057;DHT22;4563;54.756;9.400;2023-11-21T07:56:31;9.70;83.20
9057;DHT22;4563;54.756;9.400;2023-11-21T07:58:58;9.70;83.20
9057;DHT22;4563;54.756;9.400;2023-11-21T08:01:25;9.70;83.10
9057;DHT22;4563;54.756;9.400;2023-11-21T08:03:53;9.70;83.20
9057;DHT22;4563;54.756;9.400;2023-11-21T08:06:22;9.70;83.10
9057;DHT22;4563;54.756;9.400;2023-11-21T08:08:51;9.70;83.10
9057;DHT22;4563;54.756;9.400;2023-11-21T08:11:18;9.70;83.10
9057;DHT22;4563;54.756;9.400;2023-11-21T08:13:45;9.70;83.10
9057;DHT22;4563;54.756;9.400;2023-11-21T08:16:12;9.70;83.10
9057;DHT22;4563;54.756;9.400;2023-11-21T08:18:39;9.70;83.10
9057;DHT22;4563;54.756;9.400;2023-11-21T08:21:06;9.60;83.00
9057;DHT22;4563;54.756;9.400;2023-11-21T08:23:33;9.70;83.10
9057;DHT22;4563;54.756;9.400;2023-11-21T08:26:02;9.70;83.20
9057;DHT22;4563;54.756;9.400;2023-11-21T08:28:29;9.70;83.20
9057;DHT22;4563;54.756;9.400;2023-11-21T08:30:55;9.70;83.20
9057;DHT22;4563;54.756;9.400;2023-11-21T08:33:22;9.70;83.20
9057;DHT22;4563;54.756;9.400;2023-11-21T08:35:49;9.70;83.10
9057;DHT22;4563;54.756;9.400;2023-11-21T08:38:16;9.70;83.10
9057;DHT22;4563;54.756;9.400;2023-11-21T08:40:44;9.70;83.10
9057;DHT22;4563;54.756;9.400;2023-11-21T08:43:12;9.70;83.10
9057;DHT22;4563;54.756;9.400;2023-11-21T08:45:40;9.70;83.20
9057;DHT22;4563;54.756;9.400;2023-11-21T08:48:07;9.70;83.20
9057;DHT22;4563;54.756;9.400;2023-11-21T08:50:34;9.70;83.20
9057;DHT22;4563;54.756;9.400;2023-11-21T08:53:00;9.70;83.20
9057;DHT22;4563;54.756;9.400;2023-11-21T08:55:27;9.70;83.10
9057;DHT22;4563;54.756;9.400;2023-11-21T08:57:54;9.70;83.20
9057;DHT22;4563;54.756;9.400;2023-11-21T09:00:22;9.70;83.10
9057;DHT22;4563;54.756;9.400;2023-11-21T09:02:49;9.70;83.20
9057;DHT22;4563;54.756;9.400;2023-11-21T09:05:16;9.70;83.20
9057;DHT22;4563;54.756;9.400;2023-11-21T09:07:44;9.70;83.20
9057;DHT22;4563;54.756;9.400;2023-11-21T09:10:14;9.70;83.20
9057;DHT22;4563;54.756;9.400;2023-11-21T09:12:40;9.70;83.20
9057;DHT22;4563;54.756;9.400;2023-11-21T09:15:09;9.70;83.20
9057;DHT22;4563;54.756;9.400;2023-11-21T09:17:38;9.70;83.20
9057;DHT22;4563;54.756;9.400;2023-11-21T09:20:07;9.70;83.20
9057;DHT22;4563;54.756;9.400;2023-11-21T09:22:35;9.70;83.20
9057;DHT22;4563;54.756;9.400;2023-11-21T09:25:02;9.70;83.20
9057;DHT22;4563;54.756;9.400;2023-11-21T09:27:30;9.70;83.90
9057;DHT22;4563;54.756;9.400;2023-11-21T09:29:57;9.60;83.00
9057;DHT22;4563;54.756;9.400;2023-11-21T09:32:24;9.70;83.20
9057;DHT22;4563;54.756;9.400;2023-11-21T09:34:52;9.70;83.20
9057;DHT22;4563;54.756;9.400;2023-11-21T09:37:20;9.70;83.10
9057;DHT22;4563;54.756;9.400;2023-11-21T09:39:47;9.60;83.10
9057;DHT22;4563;54.756;9.400;2023-11-21T09:42:20;9.70;83.10
9057;DHT22;4563;54.756;9.400;2023-11-21T09:45:03;9.70;83.20
9057;DHT22;4563;54.756;9.400;2023-11-21T09:47:35;9.70;83.10
9057;DHT22;4563;54.756;9.400;2023-11-21T09:50:07;9.70;83.20
9057;DHT22;4563;54.756;9.400;2023-11-21T09:52:44;9.70;83.20
9057;DHT22;4563;54.756;9.400;2023-11-21T09:55:16;9.70;83.30
9057;DHT22;4563;54.756;9.400;2023-11-21T09:57:47;9.80;83.40
9057;DHT22;4563;54.756;9.400;2023-11-21T10:00:17;9.70;83.20
9057;DHT22;4563;54.756;9.400;2023-11-21T10:02:49;9.80;83.30
9057;DHT22;4563;54.756;9.400;2023-11-21T10:05:17;9.80;83.30
9057;DHT22;4563;54.756;9.400;2023-11-21T10:07:46;9.80;83.20
9057;DHT22;4563;54.756;9.400;2023-11-21T10:10:14;9.80;83.20
9057;DHT22;4563;54.756;9.400;2023-11-21T10:12:49;9.80;83.20
9057;DHT22;4563;54.756;9.400;2023-11-21T10:15:21;9.80;83.20
9057;DHT22;4563;54.756;9.400;2023-11-21T10:17:49;9.80;83.10
9057;DHT22;4563;54.756;9.400;2023-11-21T10:20:20;9.80;83.10
9057;DHT22;4563;54.756;9.400;2023-11-21T10:22:47;9.80;83.00
9057;DHT22;4563;54.756;9.400;2023-11-21T10:25:14;9.80;83.00
9057;DHT22;4563;54.756;9.400;2023-11-21T10:27:41;9.90;83.10
9057;DHT22;4563;54.756;9.400;2023-11-21T10:30:09;9.90;83.00
9057;DHT22;4563;54.756;9.400;2023-11-21T10:32:38;9.90;83.00
9057;DHT22;4563;54.756;9.400;2023-11-21T10:35:06;9.90;83.00
9057;DHT22;4563;54.756;9.400;2023-11-21T10:37:36;9.90;82.90
9057;DHT22;4563;54.756;9.400;2023-11-21T10:40:06;9.90;82.90
9057;DHT22;4563;54.756;9.400;2023-11-21T10:42:33;9.90;82.80
9057;DHT22;4563;54.756;9.400;2023-11-21T10:45:00;9.90;82.70
9057;DHT22;4563;54.756;9.400;2023-11-21T10:47:31;9.90;82.80
9057;DHT22;4563;54.756;9.400;2023-11-21T10:50:00;9.90;82.70
9057;DHT22;4563;54.756;9.400;2023-11-21T10:52:28;10.00;81.70
9057;DHT22;4563;54.756;9.400;2023-11-21T10:54:56;9.90;82.70
9057;DHT22;4563;54.756;9.400;2023-11-21T10:57:25;10.00;81.60
9057;DHT22;4563;54.756;9.400;2023-11-21T10:59:54;10.00;81.60
9057;DHT22;4563;54.756;9.400;2023-11-21T11:02:23;10.00;81.60
9057;DHT22;4563;54.756;9.400;2023-11-21T11:04:54;10.00;81.60
9057;DHT22;4563;54.756;9.400;2023-11-21T11:07:25;10.00;81.50
9057;DHT22;4563;54.756;9.400;2023-11-21T11:09:53;10.00;81.50
9057;DHT22;4563;54.756;9.400;2023-11-21T11:12:21;10.00;81.50
9057;DHT22;4563;54.756;9.400;2023-11-21T11:14:48;10.00;81.40
9057;DHT22;4563;54.756;9.400;2023-11-21T11:17:15;10.00;81.40
9057;DHT22;4563;54.756;9.400;2023-11-21T11:19:45;10.10;81.40
9057;DHT22;4563;54.756;9.400;2023-11-21T11:22:24;10.10;81.40
9057;DHT22;4563;54.756;9.400;2023-11-21T11:25:08;10.10;81.40
9057;DHT22;4563;54.756;9.400;2023-11-21T11:27:54;10.10;81.40
9057;DHT22;4563;54.756;9.400;2023-11-21T11:30:34;10.10;81.50
9057;DHT22;4563;54.756;9.400;2023-11-21T11:33:10;10.10;81.30
9057;DHT22;4563;54.756;9.400;2023-11-21T11:35:46;10.10;81.20
9057;DHT22;4563;54.756;9.400;2023-11-21T11:38:16;10.10;81.20
9057;DHT22;4563;54.756;9.400;2023-11-21T11:40:45;10.20;81.20
9057;DHT22;4563;54.756;9.400;2023-11-21T11:43:25;10.10;81.00
9057;DHT22;4563;54.756;9.400;2023-11-21T11:45:53;10.10;81.20
9057;DHT22;4563;54.756;9.400;2023-11-21T11:48:22;10.20;81.10
9057;DHT22;4563;54.756;9.400;2023-11-21T11:51:03;10.10;81.00
9057;DHT22;4563;54.756;9.400;2023-11-21T11:53:35;10.20;81.20
9057;DHT22;4563;54.756;9.400;2023-11-21T11:56:27;10.10;81.00
9057;DHT22;4563;54.756;9.400;2023-11-21T11:58:58;10.10;81.30
9057;DHT22;4563;54.756;9.400;2023-11-21T12:01:28;10.10;81.00
9057;DHT22;4563;54.756;9.400;2023-11-21T12:04:23;10.10;81.00
9057;DHT22;4563;54.756;9.400;2023-11-21T12:06:55;10.10;81.20
9057;DHT22;4563;54.756;9.400;2023-11-21T12:09:24;10.10;81.00
9057;DHT22;4563;54.756;9.400;2023-11-21T12:11:53;10.10;81.00
9057;DHT22;4563;54.756;9.400;2023-11-21T12:14:21;10.00;80.90
9057;DHT22;4563;54.756;9.400;2023-11-21T12:16:49;10.10;81.00
9057;DHT22;4563;54.756;9.400;2023-11-21T12:19:17;10.10;81.00
9057;DHT22;4563;54.756;9.400;2023-11-21T12:21:45;10.00;80.80
9057;DHT22;4563;54.756;9.400;2023-11-21T12:24:14;10.00;80.80
9057;DHT22;4563;54.756;9.400;2023-11-21T12:26:42;10.00;80.90
9057;DHT22;4563;54.756;9.400;2023-11-21T12:29:09;10.10;81.00
9057;DHT22;4563;54.756;9.400;2023-11-21T12:31:37;10.00;80.90
9057;DHT22;4563;54.756;9.400;2023-11-21T12:34:04;10.00;80.80
9057;DHT22;4563;54.756;9.400;2023-11-21T12:36:32;10.00;80.90
9057;DHT22;4563;54.756;9.400;2023-11-21T12:39:00;10.00;80.90
9057;DHT22;4563;54.756;9.400;2023-11-21T12:41:28;10.00;80.80
9057;DHT22;4563;54.756;9.400;2023-11-21T12:43:56;10.00;80.80
9057;DHT22;4563;54.756;9.400;2023-11-21T12:46:23;10.10;80.90
9057;DHT22;4563;54.756;9.400;2023-11-21T12:48:52;10.00;80.70
9057;DHT22;4563;54.756;9.400;2023-11-21T12:51:21;10.00;80.70
9057;DHT22;4563;54.756;9.400;2023-11-21T12:53:48;10.00;80.60
9057;DHT22;4563;54.756;9.400;2023-11-21T12:56:15;10.00;80.80
9057;DHT22;4563;54.756;9.400;2023-11-21T12:58:45;10.00;80.80
9057;DHT22;4563;54.756;9.400;2023-11-21T13:01:13;10.00;80.70
9057;DHT22;4563;54.756;9.400;2023-11-21T13:03:46;10.00;81.40
9057;DHT22;4563;54.756;9.400;2023-11-21T13:06:15;10.00;80.70
9057;DHT22;4563;54.756;9.400;2023-11-21T13:08:44;10.00;80.70
9057;DHT22;4563;54.756;9.400;2023-11-21T13:11:11;9.90;81.70
9057;DHT22;4563;54.756;9.400;2023-11-21T13:13:41;9.90;81.60
9057;DHT22;4563;54.756;9.400;2023-11-21T13:16:09;9.90;81.60
9057;DHT22;4563;54.756;9.400;2023-11-21T13:18:36;9.90;81.70
9057;DHT22;4563;54.756;9.400;2023-11-21T13:21:04;9.90;81.60
9057;DHT22;4563;54.756;9.400;2023-11-21T13:23:39;9.90;81.60
9057;DHT22;4563;54.756;9.400;2023-11-21T13:26:07;9.90;81.60
9057;DHT22;4563;54.756;9.400;2023-11-21T13:28:34;9.90;81.60
9057;DHT22;4563;54.756;9.400;2023-11-21T13:31:03;9.80;81.40
9057;DHT22;4563;54.756;9.400;2023-11-21T13:33:35;9.80;81.50
9057;DHT22;4563;54.756;9.400;2023-11-21T13:36:04;9.80;81.50
9057;DHT22;4563;54.756;9.400;2023-11-21T13:38:33;9.80;81.50
9057;DHT22;4563;54.756;9.400;2023-11-21T13:41:03;9.80;81.40
9057;DHT22;4563;54.756;9.400;2023-11-21T13:43:33;9.80;81.40
9057;DHT22;4563;54.756;9.400;2023-11-21T13:46:00;9.80;81.40
9057;DHT22;4563;54.756;9.400;2023-11-21T13:48:33;9.80;81.40
9057;DHT22;4563;54.756;9.400;2023-11-21T13:51:08;9.80;81.40
9057;DHT22;4563;54.756;9.400;2023-11-21T13:53:43;9.70;81.30
9057;DHT22;4563;54.756;9.400;2023-11-21T13:56:12;9.70;81.30
9057;DHT22;4563;54.756;9.400;2023-11-21T13:58:43;9.70;81.20
9057;DHT22;4563;54.756;9.400;2023-11-21T14:01:16;9.70;81.40
9057;DHT22;4563;54.756;9.400;2023-11-21T14:04:08;9.70;81.40
9057;DHT22;4563;54.756;9.400;2023-11-21T14:06:45;9.60;81.30
9057;DHT22;4563;54.756;9.400;2023-11-21T14:09:13;9.70;81.30
9057;DHT22;4563;54.756;9.400;2023-11-21T14:11:49;9.70;81.20
9057;DHT22;4563;54.756;9.400;2023-11-21T14:14:17;9.60;81.10
9057;DHT22;4563;54.756;9.400;2023-11-21T14:16:44;9.70;81.20
9057;DHT22;4563;54.756;9.400;2023-11-21T14:19:11;9.70;81.20
9057;DHT22;4563;54.756;9.400;2023-11-21T14:21:41;9.70;81.20
9057;DHT22;4563;54.756;9.400;2023-11-21T14:24:09;9.70;81.20
9057;DHT22;4563;54.756;9.400;2023-11-21T14:26:39;9.70;81.20
9057;DHT22;4563;54.756;9.400;2023-11-21T14:29:07;9.70;81.20
9057;DHT22;4563;54.756;9.400;2023-11-21T14:31:36;9.70;81.20
9057;DHT22;4563;54.756;9.400;2023-11-21T14:34:03;9.60;81.10
9057;DHT22;4563;54.756;9.400;2023-11-21T14:36:32;9.60;81.10
9057;DHT22;4563;54.756;9.400;2023-11-21T14:38:58;9.60;81.10
9057;DHT22;4563;54.756;9.400;2023-11-21T14:41:25;9.60;81.10
9057;DHT22;4563;54.756;9.400;2023-11-21T14:43:53;9.60;81.00
9057;DHT22;4563;54.756;9.400;2023-11-21T14:46:22;9.60;81.10
9057;DHT22;4563;54.756;9.400;2023-11-21T14:48:49;9.60;81.00
9057;DHT22;4563;54.756;9.400;2023-11-21T14:51:24;9.60;81.00
9057;DHT22;4563;54.756;9.400;2023-11-21T14:53:56;9.60;81.00
9057;DHT22;4563;54.756;9.400;2023-11-21T14:56:26;9.60;81.00
9057;DHT22;4563;54.756;9.400;2023-11-21T14:58:54;9.60;80.90
9057;DHT22;4563;54.756;9.400;2023-11-21T15:01:24;9.50;80.80
9057;DHT22;4563;54.756;9.400;2023-11-21T15:04:08;9.50;80.80
9057;DHT22;4563;54.756;9.400;2023-11-21T15:06:40;9.50;80.90
9057;DHT22;4563;54.756;9.400;2023-11-21T15:09:08;9.50;80.80
9057;DHT22;4563;54.756;9.400;2023-11-21T15:12:08;9.50;80.80
9057;DHT22;4563;54.756;9.400;2023-11-21T15:14:43;9.40;80.70
9057;DHT22;4563;54.756;9.400;2023-11-21T15:17:11;9.50;80.80
9057;DHT22;4563;54.756;9.400;2023-11-21T15:19:41;9.40;80.70
9057;DHT22;4563;54.756;9.400;2023-11-21T15:22:09;9.40;80.70
9057;DHT22;4563;54.756;9.400;2023-11-21T15:24:38;9.40;80.70
9057;DHT22;4563;54.756;9.400;2023-11-21T15:27:09;9.40;81.40
9057;DHT22;4563;54.756;9.400;2023-11-21T15:29:36;9.40;80.60
9057;DHT22;4563;54.756;9.400;2023-11-21T15:32:05;9.30;80.50
9057;DHT22;4563;54.756;9.400;2023-11-21T15:34:32;9.30;80.60
9057;DHT22;4563;54.756;9.400;2023-11-21T15:36:59;9.30;80.60
9057;DHT22;4563;54.756;9.400;2023-11-21T15:39:27;9.30;80.60
9057;DHT22;4563;54.756;9.400;2023-11-21T15:41:55;9.30;81.30
9057;DHT22;4563;54.756;9.400;2023-11-21T15:44:24;9.20;80.50
9057;DHT22;4563;54.756;9.400;2023-11-21T15:46:51;9.20;80.50
9057;DHT22;4563;54.756;9.400;2023-11-21T15:49:18;9.20;80.50
9057;DHT22;4563;54.756;9.400;2023-11-21T15:51:47;9.20;80.50
9057;DHT22;4563;54.756;9.400;2023-11-21T15:54:18;9.20;80.50
9057;DHT22;4563;54.756;9.400;2023-11-21T15:56:45;9.20;80.60
9057;DHT22;4563;54.756;9.400;2023-11-21T15:59:12;9.20;80.60
9057;DHT22;4563;54.756;9.400;2023-11-21T16:01:40;9.10;80.50
9057;DHT22;4563;54.756;9.400;2023-11-21T16:04:10;9.10;80.40
9057;DHT22;4563;54.756;9.400;2023-11-21T16:06:39;9.10;80.50
9057;DHT22;4563;54.756;9.400;2023-11-21T16:09:06;9.10;80.50
9057;DHT22;4563;54.756;9.400;2023-11-21T16:11:41;9.10;80.60
9057;DHT22;4563;54.756;9.400;2023-11-21T16:14:08;9.10;80.50
9057;DHT22;4563;54.756;9.400;2023-11-21T16:16:34;9.10;80.60
9057;DHT22;4563;54.756;9.400;2023-11-21T16:19:03;9.10;80.60